createdAt,value
2019-03-09T00:00:12.871Z,7.93
2019-03-09T00:02:42.884Z,10.50
2019-03-09T00:05:12.716Z,10.00
2019-03-09T00:07:42.351Z,11.37
2019-03-09T00:10:11.620Z,6.57
2019-03-09T00:12:40.892Z,7.83
2019-03-09T00:15:10.191Z,10.40
2019-03-09T00:17:39.639Z,10.70
2019-03-09T00:20:08.971Z,6.20
2019-03-09T00:22:38.344Z,9.90
2019-03-09T00:25:17.010Z,7.43
2019-03-09T00:27:54.614Z,10.63
2019-03-09T00:30:54.963Z,6.20
2019-03-09T00:33:24.539Z,14.97
2019-03-09T00:35:53.822Z,12.83
2019-03-09T00:38:23.099Z,6.23
2019-03-09T00:40:52.493Z,14.83
2019-03-09T00:43:22.285Z,5.77
2019-03-09T00:45:51.588Z,9.23
2019-03-09T00:48:20.948Z,8.20
2019-03-09T00:50:50.219Z,8.33
2019-03-09T00:53:19.491Z,10.17
2019-03-09T00:55:49.186Z,9.13
2019-03-09T00:58:18.458Z,10.70
2019-03-09T01:00:47.819Z,6.57
2019-03-09T01:03:17.119Z,14.70
2019-03-09T01:05:46.695Z,7.97
2019-03-09T01:08:16.241Z,4.13
2019-03-09T01:10:45.548Z,12.97
2019-03-09T01:13:14.990Z,8.90
2019-03-09T01:15:44.542Z,12.70
2019-03-09T01:18:14.075Z,8.07
2019-03-09T01:20:43.596Z,11.57
2019-03-09T01:23:12.998Z,10.67
2019-03-09T01:25:42.357Z,10.00
2019-03-09T01:28:11.888Z,8.60
2019-03-09T01:30:41.331Z,9.27
2019-03-09T01:33:10.901Z,10.93
2019-03-09T01:35:40.171Z,10.73
2019-03-09T01:38:09.684Z,8.40
2019-03-09T01:40:39.299Z,6.43
2019-03-09T01:43:08.539Z,8.43
2019-03-09T01:45:37.811Z,7.43
2019-03-09T01:48:07.372Z,3.60
2019-03-09T01:50:36.924Z,8.63
2019-03-09T01:53:06.203Z,8.67
2019-03-09T01:55:35.791Z,7.67
2019-03-09T01:58:05.103Z,5.07
2019-03-09T02:00:34.706Z,4.27
2019-03-09T02:03:04.037Z,6.87
2019-03-09T02:05:33.614Z,6.87
2019-03-09T02:08:03.160Z,9.33
2019-03-09T02:10:32.759Z,3.20
2019-03-09T02:13:02.333Z,6.73
2019-03-09T02:15:32.016Z,4.17
2019-03-09T02:18:01.103Z,4.10
2019-03-09T02:20:30.031Z,6.97
2019-03-09T02:22:58.767Z,6.40
2019-03-09T02:25:27.705Z,4.50
2019-03-09T02:27:56.615Z,5.10
2019-03-09T02:30:25.593Z,3.70
2019-03-09T02:32:54.334Z,3.80
2019-03-09T02:35:23.268Z,4.80
2019-03-09T02:37:52.031Z,2.60
2019-03-09T02:40:23.366Z,4.13
2019-03-09T02:42:52.174Z,4.13
2019-03-09T02:45:21.361Z,8.37
2019-03-09T02:47:50.023Z,3.47
2019-03-09T02:50:18.793Z,1.63
2019-03-09T02:52:47.830Z,3.00
2019-03-09T02:55:16.554Z,2.47
2019-03-09T02:57:45.252Z,3.63
2019-03-09T03:00:15.195Z,1.50
2019-03-09T03:03:03.958Z,2.37
2019-03-09T03:05:32.802Z,2.50
2019-03-09T03:08:01.626Z,2.00
2019-03-09T03:10:30.564Z,1.93
2019-03-09T03:12:59.270Z,1.13
2019-03-09T03:15:31.893Z,1.00
2019-03-09T03:18:00.883Z,1.00
2019-03-09T03:20:29.847Z,3.27
2019-03-09T03:22:58.608Z,3.03
2019-03-09T03:25:27.436Z,0.90
2019-03-09T03:27:56.098Z,1.33
2019-03-09T03:30:24.796Z,1.50
2019-03-09T03:32:55.485Z,2.50
2019-03-09T03:35:24.249Z,2.63
2019-03-09T03:37:52.906Z,2.03
2019-03-09T03:40:21.595Z,1.40
2019-03-09T03:42:50.299Z,1.80
2019-03-09T03:45:19.023Z,1.30
2019-03-09T03:47:48.012Z,2.43
2019-03-09T03:50:16.717Z,2.07
2019-03-09T03:52:45.429Z,2.47
2019-03-09T03:55:14.201Z,1.43
2019-03-09T03:57:42.865Z,1.13
2019-03-09T04:00:11.665Z,1.20
2019-03-09T04:02:40.416Z,2.07
2019-03-09T04:05:09.102Z,1.90
2019-03-09T04:07:37.813Z,0.80
2019-03-09T04:10:06.616Z,1.03
2019-03-09T04:12:35.590Z,1.83
2019-03-09T04:15:04.625Z,1.30
2019-03-09T04:17:33.291Z,0.97
2019-03-09T04:20:01.999Z,3.83
2019-03-09T04:22:31.009Z,2.90
2019-03-09T04:25:00.051Z,1.77
2019-03-09T04:27:28.715Z,0.77
2019-03-09T04:29:57.431Z,2.20
2019-03-09T04:32:26.119Z,2.20
2019-03-09T04:34:55.141Z,3.77
2019-03-09T04:37:23.802Z,0.87
2019-03-09T04:39:52.551Z,1.10
2019-03-09T04:42:21.204Z,1.70
2019-03-09T04:44:49.943Z,1.57
2019-03-09T04:47:18.990Z,1.50
2019-03-09T04:49:48.267Z,0.70
2019-03-09T04:52:16.986Z,0.60
2019-03-09T04:54:47.438Z,0.60
2019-03-09T04:57:16.404Z,1.43
2019-03-09T04:59:45.316Z,0.70
2019-03-09T05:02:14.236Z,0.77
2019-03-09T05:04:44.032Z,0.70
2019-03-09T05:07:14.130Z,0.70
2019-03-09T05:10:02.203Z,1.17
2019-03-09T05:12:31.055Z,0.70
2019-03-09T05:14:59.718Z,1.23
2019-03-09T05:17:28.398Z,3.03
2019-03-09T05:19:57.087Z,1.43
2019-03-09T05:22:26.164Z,1.93
2019-03-09T05:24:54.863Z,1.83
2019-03-09T05:27:24.123Z,1.90
2019-03-09T05:29:53.130Z,3.73
2019-03-09T05:32:22.152Z,1.50
2019-03-09T05:34:51.083Z,1.60
2019-03-09T05:37:20.389Z,4.40
2019-03-09T05:39:49.696Z,3.77
2019-03-09T05:42:18.987Z,1.53
2019-03-09T05:44:48.294Z,1.93
2019-03-09T05:47:17.892Z,3.97
2019-03-09T05:49:47.151Z,2.10
2019-03-09T05:52:35.255Z,3.03
2019-03-09T05:55:14.358Z,5.40
2019-03-09T05:57:44.059Z,2.00
2019-03-09T06:00:15.180Z,2.67
2019-03-09T06:02:44.483Z,2.33
2019-03-09T06:05:45.858Z,2.53
2019-03-09T06:08:15.133Z,2.70
2019-03-09T06:10:44.078Z,2.30
2019-03-09T06:13:12.769Z,2.67
2019-03-09T06:15:41.431Z,2.63
2019-03-09T06:18:10.364Z,6.37
2019-03-09T06:20:39.118Z,4.60
2019-03-09T06:23:07.768Z,4.40
2019-03-09T06:25:38.558Z,5.00
2019-03-09T06:28:06.852Z,7.23
2019-03-09T06:30:35.776Z,6.80
2019-03-09T06:33:23.896Z,7.87
2019-03-09T06:35:54.447Z,6.40
2019-03-09T06:38:35.101Z,7.83
2019-03-09T06:41:03.755Z,10.67
2019-03-09T06:43:32.457Z,4.20
2019-03-09T06:46:01.767Z,3.60
2019-03-09T06:48:30.643Z,4.17
2019-03-09T06:50:59.848Z,5.30
2019-03-09T06:53:29.449Z,3.60
2019-03-09T06:55:59.063Z,3.60
2019-03-09T06:58:28.379Z,2.53
2019-03-09T07:00:57.231Z,2.97
2019-03-09T07:03:25.904Z,4.77
2019-03-09T07:05:54.563Z,3.27
2019-03-09T07:08:23.247Z,4.33
2019-03-09T07:10:51.921Z,3.57
2019-03-09T07:13:20.575Z,3.97
2019-03-09T07:15:49.246Z,4.93
2019-03-09T07:18:19.087Z,5.00
2019-03-09T07:20:47.751Z,4.40
2019-03-09T07:23:16.689Z,4.60
2019-03-09T07:25:45.551Z,4.40
2019-03-09T07:28:15.172Z,4.43
2019-03-09T07:30:43.859Z,6.10
2019-03-09T07:33:12.860Z,8.30
2019-03-09T07:35:41.534Z,6.40
2019-03-09T07:38:10.480Z,4.03
2019-03-09T07:40:39.243Z,5.43
2019-03-09T07:43:08.171Z,5.10
2019-03-09T07:45:36.919Z,6.00
2019-03-09T07:48:05.907Z,7.13
2019-03-09T07:50:34.922Z,7.20
2019-03-09T07:53:03.858Z,4.40
2019-03-09T07:55:32.595Z,8.77
2019-03-09T07:58:02.047Z,4.57
2019-03-09T08:00:30.691Z,5.97
2019-03-09T08:02:59.682Z,5.07
2019-03-09T08:05:28.696Z,6.80
2019-03-09T08:07:57.424Z,5.13
2019-03-09T08:10:26.191Z,5.13
2019-03-09T08:12:55.110Z,6.60
2019-03-09T08:15:24.049Z,7.17
2019-03-09T08:17:53.020Z,7.10
2019-03-09T08:20:21.767Z,6.53
2019-03-09T08:22:50.606Z,6.17
2019-03-09T08:25:19.317Z,7.73
2019-03-09T08:27:47.998Z,3.30
2019-03-09T08:30:17.682Z,7.40
2019-03-09T08:32:46.647Z,10.20
2019-03-09T08:35:16.464Z,5.63
2019-03-09T08:37:45.215Z,3.33
2019-03-09T08:40:14.160Z,6.20
2019-03-09T08:42:42.933Z,4.10
2019-03-09T08:45:11.941Z,6.33
2019-03-09T08:47:40.697Z,7.50
2019-03-09T08:50:10.812Z,10.33
2019-03-09T08:52:39.510Z,5.57
2019-03-09T08:55:10.393Z,6.27
2019-03-09T08:57:39.168Z,9.13
2019-03-09T09:00:10.188Z,8.37
2019-03-09T09:02:38.969Z,7.57
2019-03-09T09:05:07.635Z,7.13
2019-03-09T09:07:36.314Z,9.87
2019-03-09T09:10:05.241Z,5.87
2019-03-09T09:12:34.223Z,6.80
2019-03-09T09:15:02.905Z,6.13
2019-03-09T09:17:31.884Z,9.73
2019-03-09T09:20:00.606Z,7.00
2019-03-09T09:22:29.336Z,6.47
2019-03-09T09:24:58.414Z,7.77
2019-03-09T09:27:27.055Z,3.90
2019-03-09T09:29:55.861Z,5.07
2019-03-09T09:32:24.514Z,8.23
2019-03-09T09:34:53.528Z,6.73
2019-03-09T09:37:22.319Z,6.83
2019-03-09T09:39:51.252Z,5.70
2019-03-09T09:42:20.231Z,5.77
2019-03-09T09:44:49.299Z,7.43
2019-03-09T09:47:18.226Z,6.90
2019-03-09T09:49:47.165Z,8.00
2019-03-09T09:52:15.948Z,9.97
2019-03-09T09:54:44.990Z,6.37
2019-03-09T09:57:13.664Z,10.43
2019-03-09T09:59:42.344Z,5.03
2019-03-09T10:02:11.028Z,4.70
2019-03-09T10:04:40.090Z,4.97
2019-03-09T10:07:08.755Z,5.23
2019-03-09T10:09:37.441Z,5.33
2019-03-09T10:12:06.372Z,9.67
2019-03-09T10:14:35.035Z,11.93
2019-03-09T10:17:03.728Z,7.60
2019-03-09T10:19:32.664Z,13.93
2019-03-09T10:22:01.768Z,7.17
2019-03-09T10:24:30.430Z,7.70
2019-03-09T10:26:59.367Z,5.87
2019-03-09T10:29:28.061Z,5.40
2019-03-09T10:31:57.034Z,9.43
2019-03-09T10:34:25.871Z,6.03
2019-03-09T10:36:54.837Z,9.07
2019-03-09T10:39:23.624Z,4.53
2019-03-09T10:41:52.266Z,5.63
2019-03-09T10:44:21.327Z,6.43
2019-03-09T10:46:50.023Z,6.93
2019-03-09T10:49:18.751Z,5.57
2019-03-09T10:51:47.739Z,5.83
2019-03-09T10:54:16.471Z,5.50
2019-03-09T10:56:45.206Z,6.57
2019-03-09T10:59:14.493Z,6.73
2019-03-09T11:01:43.475Z,11.70
2019-03-09T11:04:12.399Z,8.20
2019-03-09T11:06:41.348Z,5.63
2019-03-09T11:09:10.120Z,5.47
2019-03-09T11:11:38.766Z,5.57
2019-03-09T11:14:07.539Z,6.17
2019-03-09T11:16:36.467Z,7.07
2019-03-09T11:19:05.231Z,4.57
2019-03-09T11:21:33.900Z,5.00
2019-03-09T11:24:02.605Z,5.07
2019-03-09T11:26:31.276Z,6.97
2019-03-09T11:29:00.267Z,10.00
2019-03-09T11:31:29.071Z,3.57
2019-03-09T11:33:57.744Z,5.50
2019-03-09T11:36:26.459Z,3.37
2019-03-09T11:38:55.116Z,2.43
2019-03-09T11:41:23.795Z,5.10
2019-03-09T11:43:52.455Z,4.27
2019-03-09T11:46:21.126Z,7.07
2019-03-09T11:48:49.799Z,3.00
2019-03-09T11:51:18.458Z,3.70
2019-03-09T11:53:47.150Z,4.67
2019-03-09T11:56:15.855Z,3.13
2019-03-09T11:58:44.821Z,3.03
2019-03-09T12:01:13.753Z,3.50
2019-03-09T12:03:42.406Z,6.03
2019-03-09T12:06:11.074Z,3.70
2019-03-09T12:08:39.748Z,2.60
2019-03-09T12:11:08.742Z,5.30
2019-03-09T12:13:37.418Z,3.07
2019-03-09T12:16:06.130Z,6.00
2019-03-09T12:18:35.039Z,3.77
2019-03-09T12:21:03.975Z,3.80
2019-03-09T12:23:32.746Z,4.43
2019-03-09T12:26:01.705Z,5.90
2019-03-09T12:28:30.463Z,4.13
2019-03-09T12:30:59.179Z,2.60
2019-03-09T12:33:27.962Z,3.53
2019-03-09T12:35:56.898Z,3.93
2019-03-09T12:38:25.924Z,6.83
2019-03-09T12:40:54.597Z,3.97
2019-03-09T12:43:23.259Z,2.57
2019-03-09T12:45:51.942Z,5.67
2019-03-09T12:48:20.876Z,4.67
2019-03-09T12:50:49.818Z,2.13
2019-03-09T12:53:18.485Z,3.53
2019-03-09T12:55:47.467Z,3.33
2019-03-09T12:58:16.733Z,1.60
2019-03-09T13:00:45.651Z,2.07
2019-03-09T13:03:14.600Z,2.37
2019-03-09T13:05:43.564Z,9.83
2019-03-09T13:08:12.615Z,4.53
2019-03-09T13:10:41.829Z,3.07
2019-03-09T13:13:10.504Z,2.17
2019-03-09T13:15:39.499Z,4.00
2019-03-09T13:18:08.154Z,5.67
2019-03-09T13:20:37.104Z,5.40
2019-03-09T13:23:05.869Z,4.63
2019-03-09T13:25:34.584Z,5.43
2019-03-09T13:28:03.307Z,5.07
2019-03-09T13:30:32.324Z,5.83
2019-03-09T13:33:01.271Z,7.17
2019-03-09T13:35:29.959Z,4.63
2019-03-09T13:37:58.619Z,12.67
2019-03-09T13:40:27.552Z,10.63
2019-03-09T13:42:56.427Z,10.47
2019-03-09T13:45:25.507Z,9.77
2019-03-09T13:47:54.171Z,11.33
2019-03-09T13:50:22.839Z,11.47
2019-03-09T13:52:51.536Z,15.30
2019-03-09T13:55:20.547Z,12.03
2019-03-09T13:57:49.279Z,16.00
2019-03-09T14:00:17.958Z,13.50
2019-03-09T14:02:46.723Z,16.43
2019-03-09T14:05:15.584Z,11.83
2019-03-09T14:07:44.299Z,13.20
2019-03-09T14:10:13.495Z,17.20
2019-03-09T14:12:42.424Z,18.83
2019-03-09T14:15:12.134Z,16.87
2019-03-09T14:17:41.198Z,24.10
2019-03-09T14:20:10.075Z,19.50
2019-03-09T14:22:38.752Z,25.60
2019-03-09T14:25:07.963Z,23.93
2019-03-09T14:27:36.628Z,19.70
2019-03-09T14:30:05.964Z,17.17
2019-03-09T14:32:34.926Z,15.07
2019-03-09T14:35:04.066Z,19.27
2019-03-09T14:37:32.997Z,20.33
2019-03-09T14:40:02.054Z,20.27
2019-03-09T14:42:30.775Z,19.67
2019-03-09T14:44:59.765Z,22.07
2019-03-09T14:47:28.494Z,26.07
2019-03-09T14:49:57.147Z,21.67
2019-03-09T14:52:26.074Z,21.33
2019-03-09T14:54:55.864Z,32.00
2019-03-09T14:57:24.582Z,35.10
2019-03-09T14:59:53.337Z,25.33
2019-03-09T15:02:22.025Z,22.53
2019-03-09T15:04:50.964Z,24.47
2019-03-09T15:07:20.036Z,25.67
2019-03-09T15:09:48.725Z,26.50
2019-03-09T15:12:17.484Z,24.90
2019-03-09T15:14:46.180Z,25.70
2019-03-09T15:17:15.195Z,24.63
2019-03-09T15:19:43.923Z,34.80
2019-03-09T15:22:12.624Z,25.43
2019-03-09T15:24:41.628Z,34.00
2019-03-09T15:27:10.663Z,23.17
2019-03-09T15:29:39.366Z,21.13
2019-03-09T15:32:08.060Z,23.60
2019-03-09T15:34:36.721Z,29.27
2019-03-09T15:37:05.742Z,23.17
2019-03-09T15:39:37.263Z,23.00
2019-03-09T15:42:06.211Z,32.30
2019-03-09T15:44:35.268Z,26.23
2019-03-09T15:47:05.992Z,29.97
2019-03-09T15:49:35.131Z,35.47
2019-03-09T15:52:03.959Z,19.77
2019-03-09T15:54:32.991Z,26.50
2019-03-09T15:57:01.772Z,18.90
2019-03-09T15:59:30.532Z,33.50
2019-03-09T16:02:01.190Z,23.20
2019-03-09T16:04:30.010Z,23.23
2019-03-09T16:06:58.706Z,25.67
2019-03-09T16:09:27.399Z,16.07
2019-03-09T16:11:57.022Z,23.30
2019-03-09T16:14:26.344Z,19.47
2019-03-09T16:16:56.010Z,17.57
2019-03-09T16:19:25.533Z,25.27
2019-03-09T16:21:54.858Z,18.53
2019-03-09T16:24:25.579Z,16.53
2019-03-09T16:26:54.991Z,25.93
2019-03-09T16:29:24.487Z,15.17
2019-03-09T16:31:53.999Z,19.30
2019-03-09T16:34:24.680Z,25.87
2019-03-09T16:36:54.074Z,20.10
2019-03-09T16:39:23.657Z,22.77
2019-03-09T16:41:53.702Z,28.57
2019-03-09T16:44:23.074Z,23.77
2019-03-09T16:46:52.712Z,23.17
2019-03-09T16:49:21.997Z,20.57
2019-03-09T16:51:51.512Z,19.93
2019-03-09T16:54:21.024Z,28.13
2019-03-09T16:56:50.435Z,12.27
2019-03-09T16:59:20.093Z,25.63
2019-03-09T17:01:49.615Z,20.73
2019-03-09T17:04:19.192Z,15.40
2019-03-09T17:06:48.460Z,13.80
2019-03-09T17:09:17.740Z,25.27
2019-03-09T17:11:47.074Z,15.17
2019-03-09T17:14:16.678Z,10.27
2019-03-09T17:16:45.963Z,14.03
2019-03-09T17:19:15.230Z,10.90
2019-03-09T17:21:44.823Z,11.53
2019-03-09T17:24:14.389Z,12.10
2019-03-09T17:26:43.991Z,11.30
2019-03-09T17:29:13.264Z,14.37
2019-03-09T17:31:42.833Z,12.93
2019-03-09T17:34:12.251Z,10.90
2019-03-09T17:36:41.524Z,11.20
2019-03-09T17:39:11.952Z,12.03
2019-03-09T17:41:41.291Z,11.50
2019-03-09T17:44:10.569Z,9.77
2019-03-09T17:46:40.153Z,10.33
2019-03-09T17:49:09.449Z,9.20
2019-03-09T17:51:38.728Z,14.20
2019-03-09T17:54:08.022Z,9.93
2019-03-09T17:56:37.551Z,9.50
2019-03-09T17:59:06.827Z,11.37
2019-03-09T18:01:36.284Z,13.07
2019-03-09T18:04:05.563Z,12.60
2019-03-09T18:06:34.824Z,12.57
2019-03-09T18:09:05.420Z,9.70
2019-03-09T18:11:34.737Z,15.03
2019-03-09T18:14:07.263Z,14.90
2019-03-09T18:16:34.986Z,13.87
2019-03-09T18:19:04.581Z,17.90
2019-03-09T18:21:33.899Z,14.60
2019-03-09T18:24:03.436Z,14.03
2019-03-09T18:26:33.020Z,13.93
2019-03-09T18:29:02.727Z,14.23
2019-03-09T18:31:32.029Z,16.90
2019-03-09T18:34:01.328Z,14.27
2019-03-09T18:36:30.665Z,20.27
2019-03-09T18:39:00.264Z,16.63
2019-03-09T18:41:29.863Z,20.50
2019-03-09T18:43:59.464Z,15.03
2019-03-09T18:46:29.015Z,16.57
2019-03-09T18:48:58.419Z,22.77
2019-03-09T18:51:27.711Z,22.73
2019-03-09T18:53:57.038Z,15.53
2019-03-09T18:56:26.375Z,21.43
2019-03-09T18:58:56.294Z,22.63
2019-03-09T19:01:25.670Z,23.90
2019-03-09T19:03:55.580Z,22.83
2019-03-09T19:06:25.211Z,16.77
2019-03-09T19:08:54.560Z,24.97
2019-03-09T19:11:24.451Z,15.13
2019-03-09T19:13:53.725Z,20.57
2019-03-09T19:16:23.268Z,16.93
2019-03-09T19:18:52.812Z,17.30
2019-03-09T19:21:22.216Z,22.33
2019-03-09T19:23:51.735Z,18.73
2019-03-09T19:26:21.053Z,18.57
2019-03-09T19:28:50.344Z,16.07
2019-03-09T19:31:19.608Z,12.60
2019-03-09T19:33:51.871Z,10.97
2019-03-09T19:36:21.788Z,11.53
2019-03-09T19:38:51.624Z,15.40
2019-03-09T19:41:22.399Z,13.93
2019-03-09T19:43:51.985Z,14.13
2019-03-09T19:46:21.827Z,14.03
2019-03-09T19:48:51.111Z,15.10
2019-03-09T19:51:20.419Z,15.00
2019-03-09T19:53:49.699Z,13.20
2019-03-09T19:56:18.997Z,12.90
2019-03-09T19:58:48.543Z,11.60
2019-03-09T20:01:18.172Z,13.20
2019-03-09T20:03:48.083Z,12.00
2019-03-09T20:06:17.429Z,12.50
2019-03-09T20:08:46.928Z,9.70
2019-03-09T20:11:16.223Z,7.00
2019-03-09T20:13:45.763Z,6.67
2019-03-09T20:16:15.291Z,15.87
2019-03-09T20:18:44.595Z,13.83
2019-03-09T20:21:14.178Z,13.07
2019-03-09T20:23:43.699Z,8.40
2019-03-09T20:26:19.764Z,14.63
2019-03-09T20:28:51.313Z,9.87
2019-03-09T20:31:28.299Z,9.13
2019-03-09T20:33:55.331Z,10.73
2019-03-09T20:36:24.968Z,13.87
2019-03-09T20:38:54.313Z,11.10
2019-03-09T20:41:25.313Z,13.60
2019-03-09T20:43:55.247Z,9.13
2019-03-09T20:46:24.595Z,10.23
2019-03-09T20:48:54.905Z,8.07
2019-03-09T20:51:26.008Z,9.80
2019-03-09T20:53:57.645Z,11.13
2019-03-09T20:56:27.023Z,11.13
2019-03-09T20:58:56.346Z,13.07
2019-03-09T21:01:25.655Z,8.33
2019-03-09T21:03:55.527Z,10.57
2019-03-09T21:06:25.706Z,7.97
2019-03-09T21:08:55.143Z,10.67
2019-03-09T21:11:24.579Z,10.97
2019-03-09T21:13:53.919Z,8.70
2019-03-09T21:16:23.184Z,9.70
2019-03-09T21:18:52.487Z,6.27
2019-03-09T21:21:21.772Z,10.77
2019-03-09T21:23:51.367Z,11.77
2019-03-09T21:26:20.632Z,7.87
2019-03-09T21:28:49.891Z,8.87
2019-03-09T21:31:19.183Z,8.47
2019-03-09T21:33:48.983Z,8.83
2019-03-09T21:36:18.591Z,10.27
2019-03-09T21:38:48.177Z,12.90
2019-03-09T21:41:17.533Z,8.73
2019-03-09T21:43:46.853Z,11.03
2019-03-09T21:46:16.275Z,14.63
2019-03-09T21:48:45.843Z,12.73
2019-03-09T21:51:15.114Z,15.50
2019-03-09T21:53:44.652Z,18.53
2019-03-09T21:56:17.796Z,13.43
2019-03-09T21:58:47.301Z,16.10
2019-03-09T22:01:17.190Z,12.07
2019-03-09T22:03:46.828Z,13.93
2019-03-09T22:06:17.223Z,14.07
2019-03-09T22:08:46.845Z,15.73
2019-03-09T22:11:19.107Z,17.90
2019-03-09T22:13:48.455Z,17.70
2019-03-09T22:16:18.016Z,17.60
2019-03-09T22:18:47.579Z,20.50
2019-03-09T22:21:17.851Z,20.70
2019-03-09T22:23:47.439Z,21.77
2019-03-09T22:26:17.049Z,29.13
2019-03-09T22:28:46.671Z,29.33
2019-03-09T22:31:17.639Z,29.37
2019-03-09T22:33:47.174Z,35.47
2019-03-09T22:36:16.808Z,32.43
2019-03-09T22:38:46.356Z,28.77
2019-03-09T22:41:16.816Z,34.43
2019-03-09T22:43:46.460Z,34.10
2019-03-09T22:46:15.983Z,34.53
2019-03-09T22:48:45.356Z,34.33
2019-03-09T22:51:14.716Z,31.97
2019-03-09T22:53:44.090Z,50.73
2019-03-09T22:56:14.716Z,39.33
2019-03-09T22:58:45.270Z,37.47
2019-03-09T23:01:15.448Z,31.50
2019-03-09T23:03:45.171Z,45.63
2019-03-09T23:06:14.631Z,42.73
2019-03-09T23:08:44.394Z,47.57
2019-03-09T23:11:13.959Z,45.97
2019-03-09T23:13:43.556Z,36.07
2019-03-09T23:16:13.199Z,34.27
2019-03-09T23:18:42.541Z,44.33
2019-03-09T23:21:11.863Z,44.30
2019-03-09T23:23:41.410Z,49.77
2019-03-09T23:26:11.017Z,39.47
2019-03-09T23:28:49.933Z,38.03
2019-03-09T23:31:19.240Z,43.63
2019-03-09T23:33:48.518Z,48.63
2019-03-09T23:36:18.492Z,46.90
2019-03-09T23:38:48.405Z,41.63
2019-03-09T23:41:18.619Z,37.00
2019-03-09T23:43:48.589Z,43.53
2019-03-09T23:46:37.343Z,38.47
2019-03-09T23:49:26.636Z,39.67
2019-03-09T23:52:05.236Z,41.57
2019-03-09T23:54:36.807Z,47.33
2019-03-09T23:57:10.463Z,42.47
2019-03-09T23:59:42.685Z,38.60
